Calgary (YYC/CYYC)

Information

Location
Calgary, AB, Canada
Local Time
21:35 / 9:35 pm
GMT Time
03:35 / 3:35 am
Gates
No FAA reported delays
METAR CYYC 250300Z 12008KT 30SM FEW087 SCT250 18/05 A3030 RMK AC1CI3 AC TR SLP262 DENSITY ALT 4400FT
TAF TAF CYYC 250241Z 2503/2524 09008KT P6SM SCT250 BECMG 2507/2509 12006KT BECMG 2513/2515 16010KT FM252100 16015KT P6SM SCT140 BKN250 RMK NXT FCST BY 250600Z